createdAt,value
2022-08-04T00:01:54.919Z,24.74
2022-08-04T00:04:33.436Z,24.71
2022-08-04T00:07:09.303Z,24.69
2022-08-04T00:09:44.083Z,24.69
2022-08-04T00:12:17.205Z,24.67
2022-08-04T00:14:49.391Z,24.64
2022-08-04T00:17:21.484Z,24.62
2022-08-04T00:19:54.376Z,24.61
2022-08-04T00:22:28.897Z,24.60
2022-08-04T00:24:58.134Z,24.59
2022-08-04T00:27:29.908Z,24.57
2022-08-04T00:29:58.806Z,24.55
2022-08-04T00:32:34.650Z,24.52
2022-08-04T00:35:04.224Z,24.51
2022-08-04T00:37:34.851Z,24.49
2022-08-04T00:40:12.549Z,24.47
2022-08-04T00:42:58.464Z,24.47
2022-08-04T00:46:15.947Z,24.45
2022-08-04T00:48:51.633Z,24.42
2022-08-04T00:51:45.163Z,24.39
2022-08-04T00:54:25.515Z,24.36
2022-08-04T00:57:30.135Z,24.32
2022-08-04T01:00:10.457Z,24.31
2022-08-04T01:02:53.665Z,24.27
2022-08-04T01:05:26.190Z,24.24
2022-08-04T01:08:24.374Z,24.22
2022-08-04T01:11:04.622Z,24.19
2022-08-04T01:13:55.213Z,24.16
2022-08-04T01:16:26.869Z,24.14
2022-08-04T01:19:01.005Z,24.11
2022-08-04T01:22:00.862Z,24.09
2022-08-04T01:24:43.995Z,24.05
2022-08-04T01:27:19.745Z,24.02
2022-08-04T01:29:55.167Z,23.98
2022-08-04T01:32:28.903Z,23.95
2022-08-04T01:35:04.537Z,23.91
2022-08-04T01:37:46.491Z,23.87
2022-08-04T01:40:16.050Z,23.84
2022-08-04T01:42:46.447Z,23.82
2022-08-04T01:45:16.792Z,23.80
2022-08-04T01:47:53.025Z,23.80
2022-08-04T01:50:22.323Z,23.80
2022-08-04T01:52:54.342Z,23.81
2022-08-04T01:55:24.039Z,23.79
2022-08-04T01:58:13.591Z,23.78
2022-08-04T02:00:56.233Z,23.76
2022-08-04T02:04:18.686Z,23.77
2022-08-04T02:06:29.222Z,23.75
2022-08-04T02:09:10.015Z,23.75
2022-08-04T02:11:42.252Z,23.75
2022-08-04T02:14:39.649Z,23.73
2022-08-04T02:17:12.255Z,23.72
2022-08-04T02:19:57.314Z,23.70
2022-08-04T02:22:28.563Z,23.68
2022-08-04T02:25:02.422Z,23.65
2022-08-04T02:27:59.791Z,23.63
2022-08-04T02:30:31.988Z,23.61
2022-08-04T02:33:04.559Z,23.58
2022-08-04T02:35:37.651Z,23.56
2022-08-04T02:38:17.526Z,23.55
2022-08-04T02:40:59.212Z,23.51
2022-08-04T02:43:51.758Z,23.47
2022-08-04T02:46:20.719Z,23.42
2022-08-04T02:48:52.944Z,23.38
2022-08-04T02:51:24.587Z,23.35
2022-08-04T02:53:56.253Z,23.31
2022-08-04T02:56:26.462Z,23.28
2022-08-04T02:59:00.530Z,23.23
2022-08-04T03:01:29.391Z,23.19
2022-08-04T03:04:12.196Z,23.14
2022-08-04T03:07:21.545Z,23.07
2022-08-04T03:10:13.743Z,23.00
2022-08-04T03:13:18.387Z,22.93
2022-08-04T03:16:02.248Z,22.90
2022-08-04T03:19:03.429Z,22.85
2022-08-04T03:22:06.893Z,22.79
2022-08-04T03:25:00.561Z,22.75
2022-08-04T03:28:01.341Z,22.70
2022-08-04T03:30:43.952Z,22.65
2022-08-04T03:33:50.604Z,22.58
2022-08-04T03:36:59.965Z,22.52
2022-08-04T03:40:04.745Z,22.46
2022-08-04T03:43:57.155Z,22.42
2022-08-04T03:46:45.788Z,22.36
2022-08-04T03:49:50.049Z,22.32
2022-08-04T03:52:58.494Z,22.25
2022-08-04T03:56:04.770Z,22.20
2022-08-04T03:58:48.598Z,22.14
2022-08-04T04:01:57.853Z,22.10
2022-08-04T04:04:48.356Z,22.06
2022-08-04T04:08:06.588Z,22.02
2022-08-04T04:11:12.862Z,21.98
2022-08-04T04:14:07.182Z,21.93
2022-08-04T04:16:56.795Z,21.89
2022-08-04T04:19:38.552Z,21.85
2022-08-04T04:22:24.201Z,21.81
2022-08-04T04:25:18.769Z,21.76
2022-08-04T04:28:43.615Z,21.73
2022-08-04T04:31:03.520Z,21.70
2022-08-04T04:33:45.160Z,21.68
2022-08-04T04:36:20.289Z,21.66
2022-08-04T04:39:05.295Z,21.64
2022-08-04T04:41:51.548Z,21.61
2022-08-04T04:44:52.360Z,21.58
2022-08-04T04:48:07.282Z,21.56
2022-08-04T04:50:32.540Z,21.54
2022-08-04T04:53:12.052Z,21.53
2022-08-04T04:55:48.308Z,21.51
2022-08-04T04:58:21.205Z,21.50
2022-08-04T05:01:15.910Z,21.48
2022-08-04T05:03:57.957Z,21.48
2022-08-04T05:06:46.264Z,21.47
2022-08-04T05:09:40.560Z,21.48
2022-08-04T05:14:22.847Z,21.46
2022-08-04T05:15:17.582Z,21.48
2022-08-04T05:17:54.241Z,21.49
2022-08-04T05:20:26.825Z,21.51
2022-08-04T05:22:59.168Z,21.51
2022-08-04T05:25:35.670Z,21.52
2022-08-04T05:28:10.083Z,21.53
2022-08-04T05:30:48.277Z,21.53
2022-08-04T05:33:24.901Z,21.54
2022-08-04T05:36:19.107Z,21.54
2022-08-04T05:38:53.467Z,21.57
2022-08-04T05:41:23.390Z,21.60
2022-08-04T05:44:03.126Z,21.65
2022-08-04T05:46:33.103Z,21.68
2022-08-04T05:49:03.880Z,21.72
2022-08-04T05:51:34.725Z,21.78
2022-08-04T05:54:04.195Z,21.83
2022-08-04T05:56:34.818Z,21.87
2022-08-04T05:59:04.712Z,21.93
2022-08-04T06:01:55.394Z,22.00
2022-08-04T06:04:28.554Z,22.06
2022-08-04T06:06:56.944Z,22.12
2022-08-04T06:09:25.423Z,22.15
2022-08-04T06:12:03.019Z,22.22
2022-08-04T06:14:37.811Z,22.26
2022-08-04T06:18:33.751Z,22.33
2022-08-04T06:20:18.179Z,22.38
2022-08-04T06:22:54.794Z,22.46
2022-08-04T06:25:26.505Z,22.52
2022-08-04T06:27:57.011Z,22.60
2022-08-04T06:30:27.342Z,22.68
2022-08-04T06:33:03.814Z,22.76
2022-08-04T06:35:36.060Z,22.84
2022-08-04T06:38:06.214Z,22.93
2022-08-04T06:40:35.801Z,23.02
2022-08-04T06:43:07.094Z,23.11
2022-08-04T06:45:38.865Z,23.20
2022-08-04T06:48:08.679Z,23.29
2022-08-04T06:51:32.822Z,23.39
2022-08-04T06:53:28.179Z,23.48
2022-08-04T06:55:58.163Z,23.63
2022-08-04T06:58:28.305Z,23.74
2022-08-04T07:01:01.775Z,23.82
2022-08-04T07:03:31.990Z,23.89
2022-08-04T07:06:06.125Z,23.99
2022-08-04T07:08:43.327Z,24.08
2022-08-04T07:11:12.936Z,24.16
2022-08-04T07:13:45.171Z,24.24
2022-08-04T07:16:15.528Z,24.34
2022-08-04T07:18:44.139Z,24.39
2022-08-04T07:21:23.293Z,24.48
2022-08-04T07:23:52.211Z,24.59
2022-08-04T07:26:21.005Z,24.67
2022-08-04T07:28:49.375Z,24.75
2022-08-04T07:31:33.707Z,24.84
2022-08-04T07:34:16.943Z,24.93
2022-08-04T07:36:55.729Z,25.01
2022-08-04T07:39:28.685Z,25.07
2022-08-04T07:42:01.353Z,25.15
2022-08-04T07:44:32.141Z,25.24
2022-08-04T07:47:03.610Z,25.34
2022-08-04T07:49:54.685Z,25.43
2022-08-04T07:52:23.456Z,25.51
2022-08-04T07:54:52.765Z,25.58
2022-08-04T07:57:41.003Z,25.65
2022-08-04T08:00:16.237Z,25.74
2022-08-04T08:02:49.462Z,25.80
2022-08-04T08:05:20.170Z,25.87
2022-08-04T08:07:54.496Z,25.95
2022-08-04T08:10:24.224Z,26.04
2022-08-04T08:12:53.875Z,26.12
2022-08-04T08:15:23.213Z,26.18
2022-08-04T08:17:58.322Z,26.27
2022-08-04T08:20:32.826Z,26.38
2022-08-04T08:23:04.525Z,26.46
2022-08-04T08:25:34.119Z,26.55
2022-08-04T08:28:05.121Z,26.61
2022-08-04T08:30:34.629Z,26.70
2022-08-04T08:33:06.902Z,26.78
2022-08-04T08:35:53.382Z,26.86
2022-08-04T08:38:42.026Z,26.97
2022-08-04T08:41:40.812Z,27.06
2022-08-04T08:44:37.460Z,27.17
2022-08-04T08:47:26.692Z,27.30
2022-08-04T08:50:20.850Z,27.41
2022-08-04T08:53:03.741Z,27.49
2022-08-04T08:55:49.594Z,27.56
2022-08-04T08:58:43.204Z,27.64
2022-08-04T09:01:27.249Z,27.74
2022-08-04T09:04:23.623Z,27.86
2022-08-04T09:07:07.240Z,27.97
2022-08-04T09:09:49.927Z,28.06
2022-08-04T09:12:29.222Z,28.15
2022-08-04T09:15:05.207Z,28.27
2022-08-04T09:17:40.823Z,28.38
2022-08-04T09:20:16.927Z,28.50
2022-08-04T09:22:51.338Z,28.58
2022-08-04T09:25:25.591Z,28.70
2022-08-04T09:28:04.299Z,28.79
2022-08-04T09:30:44.892Z,28.92
2022-08-04T09:33:44.271Z,29.03
2022-08-04T09:36:25.764Z,29.17
2022-08-04T09:39:09.950Z,29.27
2022-08-04T09:41:49.383Z,29.34
2022-08-04T09:44:48.894Z,29.41
2022-08-04T09:47:39.594Z,29.50
2022-08-04T09:50:33.284Z,29.59
2022-08-04T09:53:12.978Z,29.63
2022-08-04T09:55:58.880Z,29.65
2022-08-04T09:58:48.000Z,29.71
2022-08-04T10:01:23.373Z,29.76
2022-08-04T10:03:57.324Z,29.82
2022-08-04T10:06:49.249Z,29.94
2022-08-04T10:09:34.569Z,30.03
2022-08-04T10:12:18.553Z,30.14
2022-08-04T10:14:53.884Z,30.24
2022-08-04T10:17:38.859Z,30.33
2022-08-04T10:20:45.937Z,30.38
2022-08-04T10:23:13.887Z,30.44
2022-08-04T10:26:07.667Z,30.43
2022-08-04T10:28:39.107Z,30.47
2022-08-04T10:31:11.020Z,30.58
2022-08-04T10:33:50.394Z,30.67
2022-08-04T10:36:23.863Z,30.72
2022-08-04T10:38:58.718Z,30.78
2022-08-04T10:41:36.122Z,30.85
2022-08-04T10:44:15.998Z,30.92
2022-08-04T10:46:48.974Z,30.99
2022-08-04T10:49:25.030Z,31.03
2022-08-04T10:52:00.621Z,31.07
2022-08-04T10:54:43.781Z,31.09
2022-08-04T10:57:16.573Z,31.15
2022-08-04T10:59:52.930Z,31.20
2022-08-04T11:02:35.270Z,31.28
2022-08-04T11:05:20.311Z,31.29
2022-08-04T11:07:52.742Z,31.43
2022-08-04T11:10:24.908Z,31.55
2022-08-04T11:13:01.810Z,31.58
2022-08-04T11:15:37.925Z,31.70
2022-08-04T11:18:16.210Z,31.68
2022-08-04T11:20:54.193Z,31.74
2022-08-04T11:23:28.340Z,31.78
2022-08-04T11:26:02.181Z,31.75
2022-08-04T11:28:38.643Z,31.76
2022-08-04T11:31:12.221Z,31.77
2022-08-04T11:33:51.097Z,31.83
2022-08-04T11:36:33.269Z,31.78
2022-08-04T11:39:13.707Z,31.73
2022-08-04T11:41:52.444Z,31.71
2022-08-04T11:44:32.679Z,31.70
2022-08-04T11:47:05.939Z,31.68
2022-08-04T11:49:57.592Z,31.62
2022-08-04T11:52:31.007Z,31.54
2022-08-04T11:55:05.552Z,31.49
2022-08-04T11:57:35.681Z,31.40
2022-08-04T12:00:12.366Z,31.32
2022-08-04T12:03:13.535Z,31.26
2022-08-04T12:05:53.570Z,31.19
2022-08-04T12:08:42.169Z,31.11
2022-08-04T12:11:22.436Z,31.02
2022-08-04T12:14:00.933Z,30.95
2022-08-04T12:16:37.563Z,30.90
2022-08-04T12:19:15.405Z,30.87
2022-08-04T12:21:53.221Z,30.85
2022-08-04T12:24:32.247Z,30.86
2022-08-04T12:27:08.058Z,30.86
2022-08-04T12:29:41.359Z,30.89
2022-08-04T12:32:21.861Z,30.91
2022-08-04T12:34:59.228Z,30.97
2022-08-04T12:37:37.159Z,30.99
2022-08-04T12:40:27.553Z,31.00
2022-08-04T12:43:06.896Z,31.00
2022-08-04T12:45:36.727Z,31.02
2022-08-04T12:48:07.033Z,31.05
2022-08-04T12:50:38.111Z,31.10
2022-08-04T12:53:16.997Z,31.16
2022-08-04T12:56:02.745Z,31.29
2022-08-04T12:58:43.309Z,31.41
2022-08-04T13:02:08.869Z,31.55
2022-08-04T13:04:14.015Z,31.63
2022-08-04T13:06:44.335Z,31.67
2022-08-04T13:09:20.318Z,31.68
2022-08-04T13:11:53.990Z,31.70
2022-08-04T13:14:28.210Z,31.69
2022-08-04T13:17:01.210Z,31.66
2022-08-04T13:19:31.702Z,31.66
2022-08-04T13:22:10.139Z,31.63
2022-08-04T13:24:57.122Z,31.61
2022-08-04T13:27:43.522Z,31.55
2022-08-04T13:30:22.724Z,31.50
2022-08-04T13:32:56.589Z,31.47
2022-08-04T13:35:54.582Z,31.45
2022-08-04T13:38:16.047Z,31.40
2022-08-04T13:40:47.076Z,31.37
2022-08-04T13:44:15.535Z,31.36
2022-08-04T13:46:27.098Z,31.36
2022-08-04T13:49:25.912Z,31.38
2022-08-04T13:51:58.056Z,31.37
2022-08-04T13:54:32.631Z,31.38
2022-08-04T13:57:04.524Z,31.38
2022-08-04T13:59:38.633Z,31.34
2022-08-04T14:02:09.948Z,31.29
2022-08-04T14:04:50.830Z,31.27
2022-08-04T14:07:22.569Z,31.22
2022-08-04T14:10:02.525Z,31.23
2022-08-04T14:12:38.677Z,31.20
2022-08-04T14:16:02.046Z,31.16
2022-08-04T14:18:26.519Z,31.12
2022-08-04T14:21:08.327Z,31.08
2022-08-04T14:23:47.389Z,31.03
2022-08-04T14:26:31.367Z,30.95
2022-08-04T14:29:26.864Z,30.90
2022-08-04T14:32:06.073Z,30.83
2022-08-04T14:34:45.456Z,30.77
2022-08-04T14:37:27.614Z,30.72
2022-08-04T14:40:19.186Z,30.67
2022-08-04T14:42:55.681Z,30.62
2022-08-04T14:45:30.957Z,30.57
2022-08-04T14:48:02.107Z,30.50
2022-08-04T14:50:39.221Z,30.43
2022-08-04T14:53:09.394Z,30.38
2022-08-04T14:55:39.045Z,30.33
2022-08-04T14:58:34.256Z,30.28
2022-08-04T15:00:59.019Z,30.20
2022-08-04T15:03:29.526Z,30.15
2022-08-04T15:06:02.508Z,30.12
2022-08-04T15:08:32.976Z,30.06
2022-08-04T15:11:03.105Z,30.02
2022-08-04T15:13:33.339Z,29.99
2022-08-04T15:16:07.087Z,29.97
2022-08-04T15:18:42.326Z,29.95
2022-08-04T15:21:12.429Z,29.93
2022-08-04T15:23:40.828Z,29.91
2022-08-04T15:26:13.827Z,29.87
2022-08-04T15:28:47.993Z,29.84
2022-08-04T15:32:07.375Z,29.82
2022-08-04T15:34:09.746Z,29.78
2022-08-04T15:36:56.174Z,29.76
2022-08-04T15:39:39.590Z,29.73
2022-08-04T15:42:20.916Z,29.70
2022-08-04T15:45:09.167Z,29.64
2022-08-04T15:47:37.732Z,29.59
2022-08-04T15:50:10.389Z,29.54
2022-08-04T15:53:10.731Z,29.48
2022-08-04T15:55:43.968Z,29.41
2022-08-04T15:58:13.870Z,29.37
2022-08-04T16:01:17.056Z,29.32
2022-08-04T16:03:53.218Z,29.29
2022-08-04T16:07:05.246Z,29.23
2022-08-04T16:09:45.339Z,29.17
2022-08-04T16:12:54.264Z,29.15
2022-08-04T16:15:40.155Z,29.15
2022-08-04T16:18:14.466Z,29.22
2022-08-04T16:21:00.205Z,29.34
2022-08-04T16:24:00.620Z,29.49
2022-08-04T16:26:54.332Z,29.75
2022-08-04T16:29:46.824Z,30.10
2022-08-04T16:32:26.480Z,30.36
2022-08-04T16:34:59.743Z,30.62
2022-08-04T16:37:33.978Z,30.84
2022-08-04T16:40:34.729Z,31.03
2022-08-04T16:43:07.764Z,31.24
2022-08-04T16:45:53.909Z,31.42
2022-08-04T16:48:27.081Z,31.57
2022-08-04T16:51:04.888Z,31.69
2022-08-04T16:54:04.071Z,31.78
2022-08-04T16:56:32.946Z,31.87
2022-08-04T16:59:10.242Z,31.91
2022-08-04T17:01:39.406Z,31.98
2022-08-04T17:04:08.197Z,31.99
2022-08-04T17:06:38.675Z,32.00
2022-08-04T17:09:10.817Z,32.04
2022-08-04T17:11:41.048Z,32.05
2022-08-04T17:14:10.073Z,32.07
2022-08-04T17:16:40.900Z,32.03
2022-08-04T17:19:24.198Z,32.01
2022-08-04T17:22:05.325Z,31.97
2022-08-04T17:24:35.888Z,31.92
2022-08-04T17:28:19.521Z,31.84
2022-08-04T17:29:55.246Z,31.72
2022-08-04T17:32:24.238Z,31.59
2022-08-04T17:34:55.031Z,31.49
2022-08-04T17:37:39.202Z,31.39
2022-08-04T17:40:11.274Z,31.31
2022-08-04T17:42:42.299Z,31.20
2022-08-04T17:48:09.943Z,30.86
2022-08-04T17:50:43.377Z,30.69
2022-08-04T17:53:13.352Z,30.52
2022-08-04T17:55:44.268Z,30.37
2022-08-04T17:58:22.388Z,30.23
2022-08-04T18:01:22.513Z,30.09
2022-08-04T18:03:52.860Z,29.94
2022-08-04T18:06:25.586Z,29.80
2022-08-04T18:08:59.519Z,29.69
2022-08-04T18:11:53.773Z,29.56
2022-08-04T18:14:28.671Z,29.46
2022-08-04T18:16:57.551Z,29.37
2022-08-04T18:19:25.997Z,29.28
2022-08-04T18:22:01.112Z,29.20
2022-08-04T18:24:35.915Z,29.11
2022-08-04T18:27:21.782Z,29.00
2022-08-04T18:30:15.472Z,28.93
2022-08-04T18:33:04.183Z,28.85
2022-08-04T18:35:30.720Z,28.75
2022-08-04T18:38:22.426Z,28.65
2022-08-04T18:40:54.188Z,28.56
2022-08-04T18:43:28.005Z,28.48
2022-08-04T18:46:00.134Z,28.39
2022-08-04T18:48:36.603Z,28.32
2022-08-04T18:51:22.518Z,28.25
2022-08-04T18:53:55.100Z,28.17
2022-08-04T18:56:29.873Z,28.09
2022-08-04T18:59:00.309Z,28.02
2022-08-04T19:02:12.692Z,27.95
2022-08-04T19:07:29.531Z,27.82
2022-08-04T19:09:57.965Z,27.75
2022-08-04T19:12:28.732Z,27.73
2022-08-04T19:15:07.993Z,27.68
2022-08-04T19:17:54.238Z,27.63
2022-08-04T19:20:26.787Z,27.56
2022-08-04T19:24:27.023Z,27.51
2022-08-04T19:25:59.005Z,27.46
2022-08-04T19:28:34.157Z,27.42
2022-08-04T19:31:03.537Z,27.37
2022-08-04T19:33:58.066Z,27.30
2022-08-04T19:36:27.738Z,27.24
2022-08-04T19:38:58.349Z,27.16
2022-08-04T19:41:27.132Z,27.10
2022-08-04T19:43:55.641Z,27.04
2022-08-04T19:46:25.744Z,26.97
2022-08-04T19:48:59.371Z,26.88
2022-08-04T19:51:30.538Z,26.82
2022-08-04T19:54:02.711Z,26.74
2022-08-04T19:56:40.394Z,26.68
2022-08-04T19:59:10.850Z,26.64
2022-08-04T20:01:45.276Z,26.59
2022-08-04T20:04:15.758Z,26.54
2022-08-04T20:06:44.444Z,26.47
2022-08-04T20:09:25.724Z,26.42
2022-08-04T20:11:56.201Z,26.34
2022-08-04T20:14:32.819Z,26.28
2022-08-04T20:17:03.379Z,26.23
2022-08-04T20:19:39.829Z,26.18
2022-08-04T20:22:50.321Z,26.14
2022-08-04T20:25:18.026Z,26.09
2022-08-04T20:28:00.065Z,26.06
2022-08-04T20:30:30.025Z,26.02
2022-08-04T20:33:00.028Z,25.99
2022-08-04T20:35:29.746Z,25.95
2022-08-04T20:38:01.368Z,25.92
2022-08-04T20:40:30.351Z,25.87
2022-08-04T20:42:59.545Z,25.82
2022-08-04T20:45:56.287Z,25.78
2022-08-04T20:48:16.497Z,25.73
2022-08-04T20:50:47.492Z,25.69
2022-08-04T20:53:17.369Z,25.66
2022-08-04T20:55:55.527Z,25.63
2022-08-04T20:58:27.435Z,25.57
2022-08-04T21:00:57.013Z,25.53
2022-08-04T21:03:49.317Z,25.49
2022-08-04T21:06:15.787Z,25.45
2022-08-04T21:08:56.930Z,25.42
2022-08-04T21:11:32.800Z,25.38
2022-08-04T21:14:01.813Z,25.34
2022-08-04T21:16:54.936Z,25.30
2022-08-04T21:19:18.708Z,25.26
2022-08-04T21:21:53.456Z,25.17
2022-08-04T21:24:26.271Z,25.10
2022-08-04T21:26:56.966Z,25.05
2022-08-04T21:29:34.684Z,25.00
2022-08-04T21:32:08.561Z,24.95
2022-08-04T21:34:39.825Z,24.93
2022-08-04T21:37:11.379Z,24.90
2022-08-04T21:39:54.835Z,24.88
2022-08-04T21:42:30.594Z,24.85
2022-08-04T21:44:59.434Z,24.82
2022-08-04T21:47:46.576Z,24.79
2022-08-04T21:50:19.783Z,24.74
2022-08-04T21:52:50.518Z,24.68
2022-08-04T21:55:19.697Z,24.62
2022-08-04T21:57:49.455Z,24.58
2022-08-04T22:00:20.313Z,24.53
2022-08-04T22:02:53.406Z,24.51
2022-08-04T22:05:22.423Z,24.47
2022-08-04T22:07:52.675Z,24.43
2022-08-04T22:10:31.912Z,24.41
2022-08-04T22:13:07.071Z,24.37
2022-08-04T22:16:05.053Z,24.32
2022-08-04T22:18:27.661Z,24.25
2022-08-04T22:20:56.380Z,24.24
2022-08-04T22:23:26.111Z,24.20
2022-08-04T22:25:56.066Z,24.15
2022-08-04T22:28:28.432Z,24.11
2022-08-04T22:30:58.197Z,24.08
2022-08-04T22:33:54.746Z,24.03
2022-08-04T22:36:17.085Z,23.98
2022-08-04T22:38:53.435Z,23.90
2022-08-04T22:41:34.220Z,23.84
2022-08-04T22:44:21.077Z,23.74
2022-08-04T22:46:52.802Z,23.65
2022-08-04T22:49:25.287Z,23.57
2022-08-04T22:52:10.001Z,23.52
2022-08-04T22:54:42.879Z,23.43
2022-08-04T22:57:13.949Z,23.36
2022-08-04T22:59:43.506Z,23.31
2022-08-04T23:02:11.913Z,23.24
2022-08-04T23:04:43.089Z,23.19
2022-08-04T23:07:12.778Z,23.12
2022-08-04T23:09:49.874Z,23.03
2022-08-04T23:12:26.254Z,22.97
2022-08-04T23:14:56.575Z,22.87
2022-08-04T23:17:27.737Z,22.78
2022-08-04T23:19:59.018Z,22.72
2022-08-04T23:22:41.786Z,22.63
2022-08-04T23:25:16.155Z,22.57
2022-08-04T23:27:50.564Z,22.52
2022-08-04T23:30:21.756Z,22.48
2022-08-04T23:32:53.529Z,22.43
2022-08-04T23:35:22.592Z,22.37
2022-08-04T23:37:56.147Z,22.33
2022-08-04T23:40:33.474Z,22.28
2022-08-04T23:43:17.425Z,22.23
2022-08-04T23:46:07.349Z,22.20
2022-08-04T23:48:35.488Z,22.15
2022-08-04T23:51:13.649Z,22.13
2022-08-04T23:54:01.928Z,22.12
2022-08-04T23:56:34.602Z,22.08
2022-08-04T23:59:04.540Z,22.05
